sensor_id;sensor_type;location;lat;lon;timestamp;pressure;altitude;pressure_sealevel;temperature;humidity
48563;BME280;34981;49.104;11.396;2023-08-20T00:02:17;95944.41;;;23.15;100.00
48563;BME280;34981;49.104;11.396;2023-08-20T00:04:46;95995.00;;;23.18;100.00
48563;BME280;34981;49.104;11.396;2023-08-20T00:07:14;95993.06;;;23.18;100.00
48563;BME280;34981;49.104;11.396;2023-08-20T00:09:43;96039.41;;;23.08;100.00
48563;BME280;34981;49.104;11.396;2023-08-20T00:12:10;96028.16;;;23.13;100.00
48563;BME280;34981;49.104;11.396;2023-08-20T00:14:54;96008.25;;;23.16;100.00
48563;BME280;34981;49.104;11.396;2023-08-20T00:17:22;96010.78;;;23.21;100.00
48563;BME280;34981;49.104;11.396;2023-08-20T00:19:51;96007.22;;;23.20;100.00
48563;BME280;34981;49.104;11.396;2023-08-20T00:22:21;96073.09;;;23.08;100.00
48563;BME280;34981;49.104;11.396;2023-08-20T00:24:49;96090.44;;;23.12;100.00
48563;BME280;34981;49.104;11.396;2023-08-20T00:27:17;96059.13;;;23.13;100.00
48563;BME280;34981;49.104;11.396;2023-08-20T00:29:44;96060.75;;;23.14;100.00
48563;BME280;34981;49.104;11.396;2023-08-20T00:32:12;96028.25;;;23.16;100.00
48563;BME280;34981;49.104;11.396;2023-08-20T00:34:39;96025.88;;;23.15;100.00
48563;BME280;34981;49.104;11.396;2023-08-20T00:37:07;95990.66;;;23.17;100.00
48563;BME280;34981;49.104;11.396;2023-08-20T00:39:35;95965.19;;;23.16;100.00
48563;BME280;34981;49.104;11.396;2023-08-20T00:42:02;95947.03;;;23.12;100.00
48563;BME280;34981;49.104;11.396;2023-08-20T00:44:30;95913.06;;;23.01;100.00
48563;BME280;34981;49.104;11.396;2023-08-20T00:46:57;95898.91;;;22.99;100.00
48563;BME280;34981;49.104;11.396;2023-08-20T00:49:27;95893.31;;;22.95;100.00
48563;BME280;34981;49.104;11.396;2023-08-20T00:51:55;95904.53;;;22.90;100.00
48563;BME280;34981;49.104;11.396;2023-08-20T00:54:22;95907.38;;;22.94;100.00
48563;BME280;34981;49.104;11.396;2023-08-20T00:56:50;95911.63;;;22.91;100.00
48563;BME280;34981;49.104;11.396;2023-08-20T00:59:17;95933.81;;;22.86;100.00
48563;BME280;34981;49.104;11.396;2023-08-20T01:01:45;96001.16;;;22.99;100.00
48563;BME280;34981;49.104;11.396;2023-08-20T01:04:13;96006.50;;;22.96;100.00
48563;BME280;34981;49.104;11.396;2023-08-20T01:11:49;96001.41;;;22.82;100.00
48563;BME280;34981;49.104;11.396;2023-08-20T01:14:20;96005.09;;;22.74;100.00
48563;BME280;34981;49.104;11.396;2023-08-20T01:16:48;96030.44;;;22.71;100.00
48563;BME280;34981;49.104;11.396;2023-08-20T01:19:16;96077.13;;;22.62;100.00
48563;BME280;34981;49.104;11.396;2023-08-20T01:27:00;96129.97;;;22.50;100.00
48563;BME280;34981;49.104;11.396;2023-08-20T01:29:35;96132.28;;;22.61;100.00
48563;BME280;34981;49.104;11.396;2023-08-20T01:32:03;96155.56;;;22.42;100.00
48563;BME280;34981;49.104;11.396;2023-08-20T01:34:31;96216.34;;;22.36;100.00
48563;BME280;34981;49.104;11.396;2023-08-20T01:36:58;96227.66;;;22.34;100.00
48563;BME280;34981;49.104;11.396;2023-08-20T01:39:25;96264.78;;;22.11;100.00
48563;BME280;34981;49.104;11.396;2023-08-20T01:41:52;96306.09;;;22.18;100.00
48563;BME280;34981;49.104;11.396;2023-08-20T01:44:19;96290.91;;;22.41;100.00
48563;BME280;34981;49.104;11.396;2023-08-20T01:46:46;96263.97;;;22.43;100.00
48563;BME280;34981;49.104;11.396;2023-08-20T01:49:13;96244.47;;;22.45;100.00
48563;BME280;34981;49.104;11.396;2023-08-20T01:51:41;96246.53;;;22.48;100.00
48563;BME280;34981;49.104;11.396;2023-08-20T01:54:08;96241.16;;;22.51;100.00
48563;BME280;34981;49.104;11.396;2023-08-20T01:56:35;96236.47;;;22.52;100.00
48563;BME280;34981;49.104;11.396;2023-08-20T01:59:02;96244.78;;;22.43;100.00
48563;BME280;34981;49.104;11.396;2023-08-20T02:01:29;96280.38;;;22.31;100.00
48563;BME280;34981;49.104;11.396;2023-08-20T02:03:56;96300.94;;;22.37;100.00
48563;BME280;34981;49.104;11.396;2023-08-20T02:06:23;96300.94;;;22.37;100.00
48563;BME280;34981;49.104;11.396;2023-08-20T02:08:50;96315.91;;;22.40;100.00
48563;BME280;34981;49.104;11.396;2023-08-20T02:11:18;96329.41;;;22.24;100.00
48563;BME280;34981;49.104;11.396;2023-08-20T02:13:45;96366.81;;;22.20;100.00
48563;BME280;34981;49.104;11.396;2023-08-20T02:16:12;96384.34;;;22.28;100.00
48563;BME280;34981;49.104;11.396;2023-08-20T02:18:39;96374.44;;;22.35;100.00
48563;BME280;34981;49.104;11.396;2023-08-20T02:21:06;96350.94;;;22.34;100.00
48563;BME280;34981;49.104;11.396;2023-08-20T02:23:34;96358.00;;;22.35;100.00
48563;BME280;34981;49.104;11.396;2023-08-20T02:26:01;96365.28;;;22.31;100.00
48563;BME280;34981;49.104;11.396;2023-08-20T02:28:29;96383.66;;;22.31;100.00
48563;BME280;34981;49.104;11.396;2023-08-20T02:30:56;96397.81;;;22.33;100.00
48563;BME280;34981;49.104;11.396;2023-08-20T02:33:24;96415.72;;;22.30;100.00
48563;BME280;34981;49.104;11.396;2023-08-20T02:35:51;96448.56;;;22.30;100.00
48563;BME280;34981;49.104;11.396;2023-08-20T02:38:19;96471.28;;;22.31;100.00
48563;BME280;34981;49.104;11.396;2023-08-20T02:40:46;96498.09;;;22.25;100.00
48563;BME280;34981;49.104;11.396;2023-08-20T02:43:14;96521.59;;;22.26;100.00
48563;BME280;34981;49.104;11.396;2023-08-20T02:45:41;96530.94;;;22.25;100.00
48563;BME280;34981;49.104;11.396;2023-08-20T02:48:10;96542.56;;;22.22;100.00
48563;BME280;34981;49.104;11.396;2023-08-20T02:50:37;96542.91;;;22.21;100.00
48563;BME280;34981;49.104;11.396;2023-08-20T02:53:05;96562.53;;;22.23;100.00
48563;BME280;34981;49.104;11.396;2023-08-20T02:55:32;96577.34;;;22.22;100.00
48563;BME280;34981;49.104;11.396;2023-08-20T02:58:00;96587.38;;;22.18;100.00
48563;BME280;34981;49.104;11.396;2023-08-20T03:00:27;96616.19;;;22.15;100.00
48563;BME280;34981;49.104;11.396;2023-08-20T03:02:54;96649.44;;;22.05;100.00
48563;BME280;34981;49.104;11.396;2023-08-20T03:05:22;96679.38;;;22.10;100.00
48563;BME280;34981;49.104;11.396;2023-08-20T03:07:49;96695.81;;;22.10;100.00
48563;BME280;34981;49.104;11.396;2023-08-20T03:10:17;96705.13;;;22.09;100.00
48563;BME280;34981;49.104;11.396;2023-08-20T03:12:44;96732.53;;;22.09;100.00
48563;BME280;34981;49.104;11.396;2023-08-20T03:15:11;96726.91;;;22.05;100.00
48563;BME280;34981;49.104;11.396;2023-08-20T03:17:38;96718.84;;;22.00;100.00
48563;BME280;34981;49.104;11.396;2023-08-20T03:20:06;96735.41;;;21.87;100.00
48563;BME280;34981;49.104;11.396;2023-08-20T03:22:35;96764.72;;;21.60;100.00
48563;BME280;34981;49.104;11.396;2023-08-20T03:25:03;96819.44;;;21.60;100.00
48563;BME280;34981;49.104;11.396;2023-08-20T03:27:30;96837.75;;;21.51;100.00
48563;BME280;34981;49.104;11.396;2023-08-20T03:29:57;96880.22;;;21.40;100.00
48563;BME280;34981;49.104;11.396;2023-08-20T03:32:25;96933.13;;;21.35;100.00
48563;BME280;34981;49.104;11.396;2023-08-20T03:34:52;96979.91;;;21.34;100.00
48563;BME280;34981;49.104;11.396;2023-08-20T03:37:21;97023.66;;;21.25;100.00
48563;BME280;34981;49.104;11.396;2023-08-20T03:39:49;97076.91;;;21.28;100.00
48563;BME280;34981;49.104;11.396;2023-08-20T03:42:16;97099.72;;;21.23;100.00
48563;BME280;34981;49.104;11.396;2023-08-20T03:44:43;97125.16;;;21.46;100.00
48563;BME280;34981;49.104;11.396;2023-08-20T03:47:10;97088.84;;;21.54;100.00
48563;BME280;34981;49.104;11.396;2023-08-20T03:49:37;97067.56;;;21.51;100.00
48563;BME280;34981;49.104;11.396;2023-08-20T03:52:04;97041.97;;;21.47;100.00
48563;BME280;34981;49.104;11.396;2023-08-20T03:54:33;97031.06;;;21.25;100.00
48563;BME280;34981;49.104;11.396;2023-08-20T03:57:00;97065.66;;;21.29;100.00
48563;BME280;34981;49.104;11.396;2023-08-20T03:59:29;97060.81;;;21.26;100.00
48563;BME280;34981;49.104;11.396;2023-08-20T04:01:56;97061.16;;;21.33;100.00
48563;BME280;34981;49.104;11.396;2023-08-20T04:04:24;97049.25;;;21.29;100.00
48563;BME280;34981;49.104;11.396;2023-08-20T04:06:52;97066.75;;;21.06;100.00
48563;BME280;34981;49.104;11.396;2023-08-20T04:09:19;97118.00;;;21.01;100.00
48563;BME280;34981;49.104;11.396;2023-08-20T04:11:46;97144.63;;;21.09;100.00
48563;BME280;34981;49.104;11.396;2023-08-20T04:14:13;97147.72;;;21.16;100.00
48563;BME280;34981;49.104;11.396;2023-08-20T04:16:41;97143.91;;;21.17;100.00
48563;BME280;34981;49.104;11.396;2023-08-20T04:19:08;97123.03;;;21.21;100.00
48563;BME280;34981;49.104;11.396;2023-08-20T04:21:36;97100.97;;;21.17;100.00
48563;BME280;34981;49.104;11.396;2023-08-20T04:24:03;97094.88;;;21.07;100.00
48563;BME280;34981;49.104;11.396;2023-08-20T04:26:30;97091.53;;;21.10;100.00
48563;BME280;34981;49.104;11.396;2023-08-20T04:28:58;97093.66;;;21.13;100.00
48563;BME280;34981;49.104;11.396;2023-08-20T04:31:27;97080.47;;;21.15;100.00
48563;BME280;34981;49.104;11.396;2023-08-20T04:33:59;97077.16;;;21.18;100.00
48563;BME280;34981;49.104;11.396;2023-08-20T04:36:37;97068.16;;;21.17;100.00
48563;BME280;34981;49.104;11.396;2023-08-20T04:39:04;97063.44;;;20.95;100.00
48563;BME280;34981;49.104;11.396;2023-08-20T04:41:35;97107.53;;;20.80;100.00
48563;BME280;34981;49.104;11.396;2023-08-20T04:44:02;97162.56;;;21.01;100.00
48563;BME280;34981;49.104;11.396;2023-08-20T04:46:30;97152.81;;;21.09;100.00
48563;BME280;34981;49.104;11.396;2023-08-20T04:48:58;97134.28;;;21.06;100.00
48563;BME280;34981;49.104;11.396;2023-08-20T04:51:25;97140.13;;;21.13;100.00
48563;BME280;34981;49.104;11.396;2023-08-20T04:53:52;97149.94;;;21.14;100.00
48563;BME280;34981;49.104;11.396;2023-08-20T04:56:19;97161.94;;;21.18;100.00
48563;BME280;34981;49.104;11.396;2023-08-20T04:58:46;97153.50;;;21.50;100.00
48563;BME280;34981;49.104;11.396;2023-08-20T05:01:26;97078.94;;;22.37;100.00
48563;BME280;34981;49.104;11.396;2023-08-20T05:03:53;96928.59;;;22.53;100.00
48563;BME280;34981;49.104;11.396;2023-08-20T05:06:20;96790.16;;;22.38;100.00
48563;BME280;34981;49.104;11.396;2023-08-20T05:08:47;96749.44;;;22.11;100.00
48563;BME280;34981;49.104;11.396;2023-08-20T05:11:14;96770.53;;;22.02;100.00
48563;BME280;34981;49.104;11.396;2023-08-20T05:13:43;96774.06;;;21.94;100.00
48563;BME280;34981;49.104;11.396;2023-08-20T05:16:11;96799.19;;;21.96;100.00
48563;BME280;34981;49.104;11.396;2023-08-20T05:18:38;96806.09;;;21.93;100.00
48563;BME280;34981;49.104;11.396;2023-08-20T05:21:06;96815.66;;;22.13;100.00
48563;BME280;34981;49.104;11.396;2023-08-20T05:23:33;96821.44;;;22.11;100.00
48563;BME280;34981;49.104;11.396;2023-08-20T05:26:00;96848.19;;;22.40;100.00
48563;BME280;34981;49.104;11.396;2023-08-20T05:28:27;96824.78;;;22.60;100.00
48563;BME280;34981;49.104;11.396;2023-08-20T05:30:58;96810.75;;;22.79;100.00
48563;BME280;34981;49.104;11.396;2023-08-20T05:33:25;96759.06;;;22.98;100.00
48563;BME280;34981;49.104;11.396;2023-08-20T05:35:55;96720.59;;;23.15;100.00
48563;BME280;34981;49.104;11.396;2023-08-20T05:38:22;96690.88;;;23.38;100.00
48563;BME280;34981;49.104;11.396;2023-08-20T05:40:50;96610.88;;;23.57;100.00
48563;BME280;34981;49.104;11.396;2023-08-20T05:43:17;96525.31;;;23.55;100.00
48563;BME280;34981;49.104;11.396;2023-08-20T05:45:45;96488.09;;;23.78;100.00
48563;BME280;34981;49.104;11.396;2023-08-20T05:48:17;96426.50;;;23.67;100.00
48563;BME280;34981;49.104;11.396;2023-08-20T05:50:44;96404.78;;;24.11;100.00
48563;BME280;34981;49.104;11.396;2023-08-20T05:53:12;96310.72;;;24.01;100.00
48563;BME280;34981;49.104;11.396;2023-08-20T05:55:39;96253.69;;;24.23;100.00
48563;BME280;34981;49.104;11.396;2023-08-20T05:58:07;96198.22;;;24.05;100.00
48563;BME280;34981;49.104;11.396;2023-08-20T06:00:34;96185.41;;;24.37;100.00
48563;BME280;34981;49.104;11.396;2023-08-20T06:03:01;96112.97;;;24.45;100.00
48563;BME280;34981;49.104;11.396;2023-08-20T06:05:29;96089.59;;;24.86;100.00
48563;BME280;34981;49.104;11.396;2023-08-20T06:07:56;96018.38;;;24.97;100.00
48563;BME280;34981;49.104;11.396;2023-08-20T06:10:23;95959.16;;;24.83;100.00
48563;BME280;34981;49.104;11.396;2023-08-20T06:12:50;95950.28;;;25.09;100.00
48563;BME280;34981;49.104;11.396;2023-08-20T06:15:17;95928.97;;;25.06;100.00
48563;BME280;34981;49.104;11.396;2023-08-20T06:17:44;95909.91;;;25.36;100.00
48563;BME280;34981;49.104;11.396;2023-08-20T06:20:11;95891.53;;;25.63;100.00
48563;BME280;34981;49.104;11.396;2023-08-20T06:22:39;95855.75;;;25.21;100.00
48563;BME280;34981;49.104;11.396;2023-08-20T06:25:06;95880.66;;;25.28;100.00
48563;BME280;34981;49.104;11.396;2023-08-20T06:27:33;95878.31;;;25.49;100.00
48563;BME280;34981;49.104;11.396;2023-08-20T06:30:02;95906.56;;;25.92;100.00
48563;BME280;34981;49.104;11.396;2023-08-20T06:32:29;95913.03;;;26.26;100.00
48563;BME280;34981;49.104;11.396;2023-08-20T06:34:57;95899.53;;;26.77;100.00
48563;BME280;34981;49.104;11.396;2023-08-20T06:37:24;95860.75;;;26.63;100.00
48563;BME280;34981;49.104;11.396;2023-08-20T06:39:51;95859.06;;;26.55;100.00
48563;BME280;34981;49.104;11.396;2023-08-20T06:42:18;95883.66;;;26.67;100.00
48563;BME280;34981;49.104;11.396;2023-08-20T06:44:45;95899.06;;;27.35;100.00
48563;BME280;34981;49.104;11.396;2023-08-20T06:47:12;95877.13;;;27.12;100.00
48563;BME280;34981;49.104;11.396;2023-08-20T06:49:42;95886.97;;;27.09;100.00
48563;BME280;34981;49.104;11.396;2023-08-20T06:52:09;95876.47;;;27.26;100.00
48563;BME280;34981;49.104;11.396;2023-08-20T06:54:36;95856.22;;;27.99;100.00
48563;BME280;34981;49.104;11.396;2023-08-20T06:57:03;95833.00;;;28.04;100.00
48563;BME280;34981;49.104;11.396;2023-08-20T06:59:30;95828.50;;;28.40;100.00
48563;BME280;34981;49.104;11.396;2023-08-20T07:01:57;95821.78;;;28.44;100.00
48563;BME280;34981;49.104;11.396;2023-08-20T07:04:25;95806.41;;;28.50;100.00
48563;BME280;34981;49.104;11.396;2023-08-20T07:06:52;95777.84;;;28.25;100.00
48563;BME280;34981;49.104;11.396;2023-08-20T07:09:19;95775.66;;;28.62;100.00
48563;BME280;34981;49.104;11.396;2023-08-20T07:11:46;95766.66;;;29.15;100.00
48563;BME280;34981;49.104;11.396;2023-08-20T07:14:15;95744.59;;;29.51;100.00
48563;BME280;34981;49.104;11.396;2023-08-20T07:16:42;95720.41;;;28.91;100.00
48563;BME280;34981;49.104;11.396;2023-08-20T07:19:09;95714.09;;;29.19;100.00
48563;BME280;34981;49.104;11.396;2023-08-20T07:21:36;95712.91;;;29.20;100.00
48563;BME280;34981;49.104;11.396;2023-08-20T07:24:04;95655.56;;;28.92;100.00
48563;BME280;34981;49.104;11.396;2023-08-20T07:26:31;95660.31;;;28.95;100.00
48563;BME280;34981;49.104;11.396;2023-08-20T07:28:58;95659.53;;;28.84;100.00
48563;BME280;34981;49.104;11.396;2023-08-20T07:31:29;95678.09;;;29.29;100.00
48563;BME280;34981;49.104;11.396;2023-08-20T07:33:58;95672.97;;;29.10;100.00
48563;BME280;34981;49.104;11.396;2023-08-20T07:36:31;95655.47;;;29.77;100.00
48563;BME280;34981;49.104;11.396;2023-08-20T07:38:58;95623.13;;;29.35;100.00
48563;BME280;34981;49.104;11.396;2023-08-20T07:41:28;95619.97;;;29.22;100.00
48563;BME280;34981;49.104;11.396;2023-08-20T07:43:55;95622.16;;;29.91;100.00
48563;BME280;34981;49.104;11.396;2023-08-20T07:46:22;95596.66;;;30.32;100.00
48563;BME280;34981;49.104;11.396;2023-08-20T07:48:49;95584.16;;;29.88;100.00
48563;BME280;34981;49.104;11.396;2023-08-20T07:51:16;95597.56;;;30.07;100.00
48563;BME280;34981;49.104;11.396;2023-08-20T07:53:44;95599.84;;;30.27;100.00
48563;BME280;34981;49.104;11.396;2023-08-20T07:56:11;95598.50;;;30.49;100.00
48563;BME280;34981;49.104;11.396;2023-08-20T07:58:38;95582.13;;;30.69;100.00
48563;BME280;34981;49.104;11.396;2023-08-20T08:01:05;95568.53;;;30.85;100.00
48563;BME280;34981;49.104;11.396;2023-08-20T08:03:32;95550.78;;;30.75;100.00
48563;BME280;34981;49.104;11.396;2023-08-20T08:06:00;95532.66;;;30.60;100.00
48563;BME280;34981;49.104;11.396;2023-08-20T08:08:27;95510.09;;;30.54;100.00
48563;BME280;34981;49.104;11.396;2023-08-20T08:10:54;95507.03;;;30.42;100.00
48563;BME280;34981;49.104;11.396;2023-08-20T08:13:22;95515.66;;;31.37;100.00
48563;BME280;34981;49.104;11.396;2023-08-20T08:15:49;95505.03;;;31.28;100.00
48563;BME280;34981;49.104;11.396;2023-08-20T08:18:17;95506.31;;;31.20;100.00
48563;BME280;34981;49.104;11.396;2023-08-20T08:20:44;95494.75;;;31.59;100.00
48563;BME280;34981;49.104;11.396;2023-08-20T08:23:11;95494.38;;;31.57;100.00
48563;BME280;34981;49.104;11.396;2023-08-20T08:25:39;95498.13;;;31.43;100.00
48563;BME280;34981;49.104;11.396;2023-08-20T08:28:06;95494.06;;;31.51;100.00
48563;BME280;34981;49.104;11.396;2023-08-20T08:30:34;95503.31;;;32.02;100.00
48563;BME280;34981;49.104;11.396;2023-08-20T08:33:01;95509.19;;;32.07;100.00
48563;BME280;34981;49.104;11.396;2023-08-20T08:35:28;95506.59;;;32.24;100.00
48563;BME280;34981;49.104;11.396;2023-08-20T08:37:55;95510.72;;;32.12;100.00
48563;BME280;34981;49.104;11.396;2023-08-20T08:40:26;95525.19;;;32.30;100.00
48563;BME280;34981;49.104;11.396;2023-08-20T08:42:54;95525.13;;;32.34;100.00
48563;BME280;34981;49.104;11.396;2023-08-20T08:45:22;95512.63;;;32.45;100.00
48563;BME280;34981;49.104;11.396;2023-08-20T08:47:50;95522.59;;;32.70;100.00
48563;BME280;34981;49.104;11.396;2023-08-20T08:50:17;95512.50;;;32.53;100.00
48563;BME280;34981;49.104;11.396;2023-08-20T08:52:45;95530.50;;;32.21;100.00
48563;BME280;34981;49.104;11.396;2023-08-20T08:55:14;95525.69;;;32.75;100.00
48563;BME280;34981;49.104;11.396;2023-08-20T08:57:41;95539.00;;;32.61;100.00
48563;BME280;34981;49.104;11.396;2023-08-20T09:00:08;95520.78;;;32.83;100.00
48563;BME280;34981;49.104;11.396;2023-08-20T09:02:35;95517.88;;;32.90;100.00
48563;BME280;34981;49.104;11.396;2023-08-20T09:05:04;95546.69;;;32.53;100.00
48563;BME280;34981;49.104;11.396;2023-08-20T09:07:32;95509.84;;;33.15;100.00
48563;BME280;34981;49.104;11.396;2023-08-20T09:10:00;95536.50;;;33.16;100.00
48563;BME280;34981;49.104;11.396;2023-08-20T09:12:27;95543.34;;;32.08;100.00
48563;BME280;34981;49.104;11.396;2023-08-20T09:14:55;95533.75;;;32.43;100.00
48563;BME280;34981;49.104;11.396;2023-08-20T09:17:25;95539.88;;;32.81;100.00
48563;BME280;34981;49.104;11.396;2023-08-20T09:19:54;95534.03;;;33.42;100.00
48563;BME280;34981;49.104;11.396;2023-08-20T09:22:21;95567.63;;;32.88;100.00
48563;BME280;34981;49.104;11.396;2023-08-20T09:24:53;95573.38;;;33.01;100.00
48563;BME280;34981;49.104;11.396;2023-08-20T09:27:21;95613.00;;;33.55;100.00
48563;BME280;34981;49.104;11.396;2023-08-20T09:29:49;95677.00;;;33.62;100.00
48563;BME280;34981;49.104;11.396;2023-08-20T09:32:20;95727.25;;;33.08;100.00
48563;BME280;34981;49.104;11.396;2023-08-20T09:34:51;95747.16;;;32.80;100.00
48563;BME280;34981;49.104;11.396;2023-08-20T09:37:22;95781.41;;;32.73;100.00
48563;BME280;34981;49.104;11.396;2023-08-20T09:39:50;95782.47;;;33.40;100.00
48563;BME280;34981;49.104;11.396;2023-08-20T09:42:17;95810.63;;;33.49;100.00
48563;BME280;34981;49.104;11.396;2023-08-20T09:44:45;95853.25;;;33.46;100.00
48563;BME280;34981;49.104;11.396;2023-08-20T09:47:16;95930.53;;;33.46;100.00
48563;BME280;34981;49.104;11.396;2023-08-20T09:49:44;95937.13;;;32.91;100.00
48563;BME280;34981;49.104;11.396;2023-08-20T09:52:12;95952.63;;;32.92;100.00
48563;BME280;34981;49.104;11.396;2023-08-20T09:57:33;95968.97;;;32.90;100.00
48563;BME280;34981;49.104;11.396;2023-08-20T10:00:01;95999.34;;;32.77;100.00
48563;BME280;34981;49.104;11.396;2023-08-20T10:02:39;95995.75;;;33.52;100.00
48563;BME280;34981;49.104;11.396;2023-08-20T10:05:07;96010.47;;;33.83;100.00
48563;BME280;34981;49.104;11.396;2023-08-20T10:07:35;96023.16;;;33.23;100.00
48563;BME280;34981;49.104;11.396;2023-08-20T10:10:04;96040.50;;;33.38;100.00
48563;BME280;34981;49.104;11.396;2023-08-20T10:12:33;96080.34;;;32.38;100.00
48563;BME280;34981;49.104;11.396;2023-08-20T10:15:01;96089.78;;;32.55;100.00
48563;BME280;34981;49.104;11.396;2023-08-20T10:17:32;96088.50;;;33.11;100.00
48563;BME280;34981;49.104;11.396;2023-08-20T10:20:04;96095.88;;;32.91;100.00
48563;BME280;34981;49.104;11.396;2023-08-20T10:22:32;96101.38;;;32.98;100.00
48563;BME280;34981;49.104;11.396;2023-08-20T10:24:59;96099.13;;;33.65;100.00
48563;BME280;34981;49.104;11.396;2023-08-20T10:27:33;96145.50;;;33.48;100.00
48563;BME280;34981;49.104;11.396;2023-08-20T10:30:07;96166.63;;;33.01;100.00
48563;BME280;34981;49.104;11.396;2023-08-20T10:35:16;96188.78;;;33.15;100.00
48563;BME280;34981;49.104;11.396;2023-08-20T10:46:16;96259.59;;;33.69;100.00
48563;BME280;34981;49.104;11.396;2023-08-20T10:48:50;96275.97;;;33.63;100.00
48563;BME280;34981;49.104;11.396;2023-08-20T10:51:18;96281.16;;;34.06;100.00
48563;BME280;34981;49.104;11.396;2023-08-20T10:59:23;96297.38;;;33.81;100.00
48563;BME280;34981;49.104;11.396;2023-08-20T11:01:56;96301.09;;;34.05;100.00
48563;BME280;34981;49.104;11.396;2023-08-20T11:04:30;96299.88;;;33.65;100.00
48563;BME280;34981;49.104;11.396;2023-08-20T11:07:00;96289.44;;;33.76;100.00
48563;BME280;34981;49.104;11.396;2023-08-20T11:09:29;96286.16;;;33.88;100.00
48563;BME280;34981;49.104;11.396;2023-08-20T11:11:56;96289.19;;;33.56;100.00
48563;BME280;34981;49.104;11.396;2023-08-20T11:14:24;96289.03;;;33.77;100.00
48563;BME280;34981;49.104;11.396;2023-08-20T11:16:51;96304.03;;;33.42;100.00
48563;BME280;34981;49.104;11.396;2023-08-20T11:19:19;96313.41;;;33.66;100.00
48563;BME280;34981;49.104;11.396;2023-08-20T11:21:47;96317.72;;;33.22;100.00
48563;BME280;34981;49.104;11.396;2023-08-20T11:24:15;96325.59;;;33.35;100.00
48563;BME280;34981;49.104;11.396;2023-08-20T11:26:43;96331.31;;;33.72;100.00
48563;BME280;34981;49.104;11.396;2023-08-20T11:29:11;96326.47;;;33.76;100.00
48563;BME280;34981;49.104;11.396;2023-08-20T11:31:39;96313.81;;;33.65;100.00
48563;BME280;34981;49.104;11.396;2023-08-20T11:34:07;96337.66;;;33.10;100.00
48563;BME280;34981;49.104;11.396;2023-08-20T11:36:38;96337.53;;;33.32;100.00
48563;BME280;34981;49.104;11.396;2023-08-20T11:39:08;96354.00;;;33.08;100.00
48563;BME280;34981;49.104;11.396;2023-08-20T11:41:36;96360.88;;;32.86;100.00
48563;BME280;34981;49.104;11.396;2023-08-20T11:44:04;96347.13;;;33.31;100.00
48563;BME280;34981;49.104;11.396;2023-08-20T11:46:31;96348.53;;;33.56;100.00
48563;BME280;34981;49.104;11.396;2023-08-20T11:49:08;96340.47;;;33.69;100.00
48563;BME280;34981;49.104;11.396;2023-08-20T11:54:06;96351.56;;;33.10;100.00
48563;BME280;34981;49.104;11.396;2023-08-20T11:56:34;96338.59;;;32.86;100.00
48563;BME280;34981;49.104;11.396;2023-08-20T11:59:02;96356.06;;;32.90;100.00
48563;BME280;34981;49.104;11.396;2023-08-20T12:01:29;96343.16;;;33.28;100.00
48563;BME280;34981;49.104;11.396;2023-08-20T12:04:03;96339.88;;;33.44;100.00
48563;BME280;34981;49.104;11.396;2023-08-20T12:06:31;96339.09;;;33.40;100.00
48563;BME280;34981;49.104;11.396;2023-08-20T12:08:59;96349.16;;;33.19;100.00
48563;BME280;34981;49.104;11.396;2023-08-20T12:11:29;96344.81;;;33.15;100.00
48563;BME280;34981;49.104;11.396;2023-08-20T12:13:57;96338.31;;;33.36;100.00
48563;BME280;34981;49.104;11.396;2023-08-20T12:16:24;96341.97;;;33.26;100.00
48563;BME280;34981;49.104;11.396;2023-08-20T12:18:52;96336.28;;;33.43;100.00
48563;BME280;34981;49.104;11.396;2023-08-20T12:21:22;96345.44;;;33.44;100.00
48563;BME280;34981;49.104;11.396;2023-08-20T12:23:50;96332.25;;;33.99;100.00
48563;BME280;34981;49.104;11.396;2023-08-20T12:26:17;96346.03;;;33.69;100.00
48563;BME280;34981;49.104;11.396;2023-08-20T12:28:45;96340.19;;;32.87;100.00
48563;BME280;34981;49.104;11.396;2023-08-20T12:31:12;96333.25;;;33.16;100.00
48563;BME280;34981;49.104;11.396;2023-08-20T12:33:39;96338.44;;;33.14;100.00
48563;BME280;34981;49.104;11.396;2023-08-20T12:36:06;96331.31;;;33.03;100.00
48563;BME280;34981;49.104;11.396;2023-08-20T12:38:34;96335.59;;;33.25;100.00
48563;BME280;34981;49.104;11.396;2023-08-20T12:41:01;96332.25;;;33.51;100.00
48563;BME280;34981;49.104;11.396;2023-08-20T12:43:29;96325.44;;;33.56;100.00
48563;BME280;34981;49.104;11.396;2023-08-20T12:45:56;96331.91;;;33.42;100.00
48563;BME280;34981;49.104;11.396;2023-08-20T12:48:23;96331.16;;;33.38;100.00
48563;BME280;34981;49.104;11.396;2023-08-20T12:50:50;96327.19;;;33.87;100.00
48563;BME280;34981;49.104;11.396;2023-08-20T12:53:18;96321.63;;;33.87;100.00
48563;BME280;34981;49.104;11.396;2023-08-20T12:55:45;96324.94;;;33.06;100.00
48563;BME280;34981;49.104;11.396;2023-08-20T12:58:12;96318.09;;;33.24;100.00
48563;BME280;34981;49.104;11.396;2023-08-20T13:00:40;96315.94;;;33.46;100.00
48563;BME280;34981;49.104;11.396;2023-08-20T13:03:07;96316.88;;;33.26;100.00
48563;BME280;34981;49.104;11.396;2023-08-20T13:05:34;96315.41;;;33.03;100.00
48563;BME280;34981;49.104;11.396;2023-08-20T13:08:02;96307.78;;;33.14;100.00
48563;BME280;34981;49.104;11.396;2023-08-20T13:10:29;96316.81;;;33.36;100.00
48563;BME280;34981;49.104;11.396;2023-08-20T13:12:59;96317.63;;;33.37;100.00
48563;BME280;34981;49.104;11.396;2023-08-20T13:15:26;96310.31;;;33.53;100.00
48563;BME280;34981;49.104;11.396;2023-08-20T13:17:54;96308.22;;;33.06;100.00